createdAt,value
2018-08-24T11:50:48.657Z,2.70
2018-08-24T11:53:16.356Z,3.13
2018-08-24T11:55:44.132Z,3.13
2018-08-24T11:58:12.170Z,3.63
2018-08-24T12:00:43.882Z,3.97
2018-08-24T12:03:11.717Z,3.50
2018-08-24T12:05:39.563Z,3.90
2018-08-24T12:08:08.117Z,3.80
2018-08-24T12:10:35.831Z,3.70
2018-08-24T12:13:03.877Z,3.53
2018-08-24T12:15:31.754Z,4.27
2018-08-24T12:17:59.526Z,2.83
2018-08-24T12:20:27.954Z,4.50
2018-08-24T12:22:55.961Z,6.57
2018-08-24T12:25:23.785Z,4.37
2018-08-24T12:27:54.043Z,4.70
2018-08-24T12:30:21.793Z,5.03
2018-08-24T12:32:49.456Z,5.37
2018-08-24T12:35:17.066Z,5.17
2018-08-24T12:37:46.013Z,5.40
2018-08-24T12:40:14.369Z,6.70
2018-08-24T12:42:42.178Z,6.40
2018-08-24T12:45:10.174Z,4.63
2018-08-24T12:47:38.087Z,5.67
2018-08-24T13:34:17.190Z,4.40
2018-08-24T13:36:44.908Z,5.53
2018-08-24T21:07:07.588Z,1.90
2018-08-24T21:09:35.400Z,3.30
2018-08-24T21:12:03.342Z,3.60
2018-08-24T21:14:31.022Z,1.87
2018-08-24T21:16:59.721Z,2.77
2018-08-24T21:19:34.720Z,1.93
2018-08-24T21:22:02.616Z,2.43
2018-08-24T21:24:30.471Z,1.73
2018-08-24T21:26:58.209Z,2.23
2018-08-24T21:29:25.965Z,2.10
2018-08-24T21:31:55.517Z,2.60
2018-08-24T21:34:23.411Z,2.57
2018-08-24T21:36:51.248Z,2.40
2018-08-24T21:39:19.023Z,2.43
2018-08-24T21:41:46.804Z,2.07
2018-08-24T21:44:14.745Z,2.27
2018-08-24T21:46:42.540Z,1.93
2018-08-24T21:49:10.391Z,1.90
2018-08-24T21:51:38.180Z,2.50
2018-08-24T21:54:05.971Z,2.13
2018-08-24T21:56:33.820Z,2.00
2018-08-24T21:59:01.470Z,2.40
2018-08-24T22:01:29.317Z,1.83
2018-08-24T22:03:57.163Z,2.93
2018-08-24T22:06:25.037Z,2.30
2018-08-24T22:08:52.862Z,2.00
2018-08-24T22:11:20.720Z,2.30
2018-08-24T22:13:48.483Z,2.00
2018-08-24T22:16:16.314Z,2.27
2018-08-24T22:18:44.606Z,1.60
2018-08-24T22:21:14.606Z,1.90
2018-08-24T22:23:43.602Z,1.83
2018-08-24T22:26:12.883Z,1.70
2018-08-24T22:28:40.621Z,2.27
2018-08-24T22:31:08.317Z,2.17
2018-08-24T22:33:36.160Z,1.40
2018-08-24T22:36:04.587Z,1.70
2018-08-24T22:38:32.399Z,2.00
2018-08-24T22:41:00.717Z,1.70
2018-08-24T22:50:55.562Z,2.60
2018-08-24T22:53:24.103Z,1.90
2018-08-24T23:00:46.002Z,2.30
2018-08-24T23:10:34.770Z,1.95
2018-08-24T23:13:02.542Z,2.10
2018-08-24T23:20:24.586Z,1.75
2018-08-24T23:25:19.235Z,2.15
2018-08-24T23:27:46.968Z,1.90
2018-08-24T23:30:14.669Z,1.65
2018-08-24T23:37:36.803Z,1.40
2018-08-24T23:40:05.481Z,2.00
2018-08-24T23:42:33.137Z,2.27
2018-08-24T23:45:01.059Z,1.80
2018-08-24T23:47:28.822Z,2.10
2018-08-24T23:49:56.594Z,2.23
2018-08-24T23:52:24.364Z,1.90
2018-08-24T23:54:52.267Z,2.27
2018-08-24T23:57:20.072Z,1.70
2018-08-24T23:59:47.930Z,1.50
